createdAt,value
2022-08-22T00:02:36.585Z,22.30
2022-08-22T00:02:46.391Z,23.50
2022-08-22T00:02:49.791Z,23.00
2022-08-22T00:02:52.694Z,24.10
2022-08-22T00:02:57.678Z,22.70
2022-08-22T00:02:59.458Z,23.40
2022-08-22T00:03:00.471Z,24.00
2022-08-22T00:03:06.551Z,22.70
2022-08-22T00:05:24.947Z,22.40
2022-08-22T00:08:08.073Z,22.40
2022-08-22T00:10:49.916Z,22.40
2022-08-22T00:13:25.526Z,22.40
2022-08-22T00:16:09.031Z,22.40
2022-08-22T00:18:49.925Z,22.40
2022-08-22T00:21:29.708Z,22.40
2022-08-22T00:24:14.463Z,22.40
2022-08-22T00:26:47.692Z,22.40
2022-08-22T00:29:17.682Z,22.40
2022-08-22T00:31:47.778Z,22.40
2022-08-22T00:34:33.249Z,22.40
2022-08-22T00:37:17.251Z,22.40
2022-08-22T00:40:04.687Z,22.40
2022-08-22T00:42:53.448Z,22.40
2022-08-22T00:45:26.699Z,22.40
2022-08-22T00:48:14.679Z,22.40
2022-08-22T00:51:06.728Z,22.30
2022-08-22T00:53:36.230Z,22.30
2022-08-22T00:56:10.902Z,22.20
2022-08-22T00:58:57.466Z,22.20
2022-08-22T01:01:32.119Z,22.20
2022-08-22T01:04:28.909Z,22.20
2022-08-22T01:07:22.075Z,22.20
2022-08-22T01:10:01.001Z,22.20
2022-08-22T01:12:37.595Z,22.10
2022-08-22T01:15:07.781Z,22.10
2022-08-22T01:17:44.360Z,22.10
2022-08-22T01:20:29.940Z,22.10
2022-08-22T01:23:40.396Z,22.10
2022-08-22T01:26:21.090Z,22.00
2022-08-22T01:28:56.814Z,22.00
2022-08-22T01:31:48.530Z,22.00
2022-08-22T01:34:41.296Z,22.00
2022-08-22T01:37:22.560Z,22.00
2022-08-22T01:39:58.103Z,21.90
2022-08-22T01:42:30.709Z,21.90
2022-08-22T01:45:00.454Z,21.90
2022-08-22T01:47:43.878Z,21.90
2022-08-22T01:50:35.268Z,21.90
2022-08-22T01:53:12.620Z,21.90
2022-08-22T01:55:50.839Z,21.90
2022-08-22T01:58:23.237Z,21.80
2022-08-22T02:01:02.035Z,21.90
2022-08-22T02:03:53.783Z,21.80
2022-08-22T02:06:51.791Z,21.80
2022-08-22T02:09:40.139Z,21.80
2022-08-22T02:12:34.440Z,21.80
2022-08-22T02:15:19.206Z,21.80
2022-08-22T02:17:56.414Z,21.80
2022-08-22T02:20:33.976Z,21.80
2022-08-22T02:23:20.781Z,21.80
2022-08-22T02:25:56.719Z,21.70
2022-08-22T02:29:01.874Z,21.70
2022-08-22T02:31:47.161Z,21.70
2022-08-22T02:34:47.631Z,21.70
2022-08-22T02:37:40.885Z,21.70
2022-08-22T02:40:25.785Z,21.70
2022-08-22T02:43:14.949Z,21.70
2022-08-22T02:46:05.597Z,21.70
2022-08-22T02:48:50.739Z,21.70
2022-08-22T02:51:35.096Z,21.70
2022-08-22T02:54:26.553Z,21.60
2022-08-22T02:56:58.912Z,21.70
2022-08-22T03:00:04.695Z,21.60
2022-08-22T03:02:36.044Z,21.60
2022-08-22T03:05:15.615Z,21.60
2022-08-22T03:07:46.443Z,21.60
2022-08-22T03:10:35.721Z,21.60
2022-08-22T03:13:07.981Z,21.60
2022-08-22T03:15:49.446Z,21.60
2022-08-22T03:18:45.471Z,21.60
2022-08-22T03:21:33.880Z,21.60
2022-08-22T03:24:09.037Z,21.70
2022-08-22T03:26:45.055Z,21.60
2022-08-22T03:29:16.742Z,21.70
2022-08-22T03:32:07.421Z,21.70
2022-08-22T03:34:36.493Z,21.60
2022-08-22T03:37:10.955Z,21.60
2022-08-22T03:40:04.734Z,21.60
2022-08-22T03:43:19.230Z,21.60
2022-08-22T03:46:04.445Z,21.60
2022-08-22T03:48:51.350Z,21.50
2022-08-22T03:51:49.026Z,21.50
2022-08-22T03:54:21.888Z,21.50
2022-08-22T03:56:52.601Z,21.50
2022-08-22T03:59:34.042Z,21.50
2022-08-22T04:02:41.813Z,21.50
2022-08-22T04:05:26.750Z,21.40
2022-08-22T04:07:59.607Z,21.30
2022-08-22T04:10:54.850Z,21.30
2022-08-22T04:13:27.799Z,21.30
2022-08-22T04:16:31.724Z,21.20
2022-08-22T04:19:21.826Z,21.20
2022-08-22T04:22:16.511Z,21.20
2022-08-22T04:25:01.110Z,21.20
2022-08-22T04:27:43.323Z,21.20
2022-08-22T04:30:32.574Z,21.10
2022-08-22T04:33:17.138Z,21.10
2022-08-22T04:36:00.891Z,21.10
2022-08-22T04:38:32.481Z,21.10
2022-08-22T04:41:06.948Z,21.10
2022-08-22T04:43:42.618Z,21.10
2022-08-22T04:46:33.756Z,21.10
2022-08-22T04:49:14.592Z,21.00
2022-08-22T04:51:48.849Z,21.00
2022-08-22T04:54:39.649Z,21.00
2022-08-22T04:57:29.688Z,21.00
2022-08-22T05:00:07.691Z,21.00
2022-08-22T05:02:37.102Z,21.00
2022-08-22T05:05:13.533Z,21.00
2022-08-22T05:07:57.045Z,21.00
2022-08-22T05:10:36.073Z,21.00
2022-08-22T05:13:08.859Z,21.00
2022-08-22T05:15:37.737Z,21.00
2022-08-22T05:18:09.980Z,21.10
2022-08-22T05:20:39.394Z,21.10
2022-08-22T05:23:39.683Z,21.20
2022-08-22T05:26:07.020Z,21.40
2022-08-22T05:28:37.047Z,21.50
2022-08-22T05:31:12.435Z,21.60
2022-08-22T05:33:43.272Z,21.80
2022-08-22T05:36:15.475Z,21.90
2022-08-22T05:38:48.897Z,22.20
2022-08-22T05:41:25.491Z,22.40
2022-08-22T05:43:54.941Z,22.60
2022-08-22T05:46:27.123Z,22.60
2022-08-22T05:48:57.213Z,22.60
2022-08-22T05:51:27.561Z,22.50
2022-08-22T05:54:16.579Z,22.50
2022-08-22T05:56:50.270Z,22.40
2022-08-22T05:59:30.042Z,22.30
2022-08-22T06:02:35.549Z,22.40
2022-08-22T06:05:09.963Z,22.40
2022-08-22T06:07:44.283Z,22.50
2022-08-22T06:10:16.809Z,22.60
2022-08-22T06:12:49.076Z,22.70
2022-08-22T06:15:30.950Z,22.80
2022-08-22T06:18:05.287Z,22.90
2022-08-22T06:20:39.246Z,23.20
2022-08-22T06:23:06.323Z,23.30
2022-08-22T06:25:34.449Z,23.30
2022-08-22T06:28:07.157Z,23.30
2022-08-22T06:30:36.801Z,23.20
2022-08-22T06:33:08.018Z,23.20
2022-08-22T06:36:01.909Z,23.20
2022-08-22T06:38:33.616Z,23.20
2022-08-22T06:41:06.257Z,23.30
2022-08-22T06:43:37.930Z,23.30
2022-08-22T06:46:06.023Z,23.30
2022-08-22T06:48:32.796Z,23.30
2022-08-22T06:50:59.638Z,23.30
2022-08-22T06:53:48.132Z,23.30
2022-08-22T06:56:26.531Z,23.30
2022-08-22T06:58:56.507Z,23.20
2022-08-22T07:01:30.133Z,23.10
2022-08-22T07:04:09.864Z,23.10
2022-08-22T07:06:44.475Z,23.10
2022-08-22T07:09:30.942Z,23.10
2022-08-22T07:11:59.644Z,23.00
2022-08-22T07:14:40.904Z,23.00
2022-08-22T07:17:12.952Z,23.00
2022-08-22T07:19:41.597Z,23.00
2022-08-22T07:22:13.836Z,23.10
2022-08-22T07:24:44.980Z,23.10
2022-08-22T07:27:38.474Z,23.20
2022-08-22T07:30:10.119Z,23.20
2022-08-22T07:32:57.777Z,23.20
2022-08-22T07:35:53.029Z,23.30
2022-08-22T07:38:57.766Z,23.30
2022-08-22T07:41:29.160Z,23.40
2022-08-22T07:44:21.250Z,23.50
2022-08-22T07:47:18.022Z,23.50
2022-08-22T07:49:55.006Z,23.50
2022-08-22T07:52:21.819Z,23.60
2022-08-22T07:54:54.493Z,23.70
2022-08-22T07:57:32.187Z,23.70
2022-08-22T08:00:00.262Z,23.70
2022-08-22T08:02:27.145Z,23.80
2022-08-22T08:04:55.245Z,23.80
2022-08-22T08:07:24.095Z,23.80
2022-08-22T08:10:01.802Z,23.80
2022-08-22T08:12:38.439Z,23.80
2022-08-22T08:15:09.774Z,23.80
2022-08-22T08:17:36.870Z,23.80
2022-08-22T08:20:10.726Z,23.80
2022-08-22T08:22:38.458Z,23.80
2022-08-22T08:25:06.050Z,23.90
2022-08-22T08:27:54.278Z,24.00
2022-08-22T08:30:43.344Z,24.00
2022-08-22T08:33:25.179Z,24.00
2022-08-22T08:36:11.297Z,24.10
2022-08-22T08:39:12.491Z,24.10
2022-08-22T08:41:57.673Z,24.20
2022-08-22T08:45:04.061Z,24.20
2022-08-22T08:47:49.921Z,24.20
2022-08-22T08:50:22.351Z,24.30
2022-08-22T08:53:08.729Z,24.30
2022-08-22T08:55:41.154Z,24.30
2022-08-22T08:58:13.948Z,24.40
2022-08-22T09:00:52.615Z,24.40
2022-08-22T09:03:45.583Z,24.50
2022-08-22T09:06:18.524Z,24.40
2022-08-22T09:09:06.319Z,24.50
2022-08-22T09:11:51.376Z,24.40
2022-08-22T09:14:26.335Z,24.40
2022-08-22T09:17:09.870Z,24.40
2022-08-22T09:19:44.900Z,24.50
2022-08-22T09:22:33.390Z,24.50
2022-08-22T09:25:23.489Z,24.50
2022-08-22T09:28:19.765Z,24.60
2022-08-22T09:31:01.865Z,24.50
2022-08-22T09:33:49.835Z,24.60
2022-08-22T09:36:20.758Z,24.60
2022-08-22T09:39:16.519Z,24.60
2022-08-22T09:42:08.049Z,24.60
2022-08-22T09:44:39.425Z,24.60
2022-08-22T09:47:24.339Z,24.60
2022-08-22T09:50:05.972Z,24.60
2022-08-22T09:53:05.486Z,24.70
2022-08-22T09:55:41.016Z,24.60
2022-08-22T09:58:27.899Z,24.60
2022-08-22T10:01:32.774Z,24.60
2022-08-22T10:04:38.293Z,24.60
2022-08-22T10:07:53.969Z,24.60
2022-08-22T10:10:52.970Z,24.60
2022-08-22T10:13:34.070Z,24.50
2022-08-22T10:16:14.789Z,24.50
2022-08-22T10:19:07.375Z,24.60
2022-08-22T10:21:43.323Z,24.60
2022-08-22T10:24:31.020Z,24.60
2022-08-22T10:27:01.236Z,24.70
2022-08-22T10:29:52.919Z,24.70
2022-08-22T10:32:30.735Z,24.80
2022-08-22T10:35:10.459Z,24.80
2022-08-22T10:37:55.281Z,24.80
2022-08-22T10:40:25.914Z,24.90
2022-08-22T10:42:57.640Z,24.80
2022-08-22T10:45:36.726Z,24.80
2022-08-22T10:48:21.725Z,24.90
2022-08-22T10:50:50.711Z,24.90
2022-08-22T10:53:35.861Z,25.00
2022-08-22T10:56:34.334Z,25.00
2022-08-22T10:59:08.334Z,25.10
2022-08-22T11:01:42.471Z,25.10
2022-08-22T11:04:35.588Z,25.10
2022-08-22T11:07:39.437Z,25.10
2022-08-22T11:10:17.307Z,25.20
2022-08-22T11:12:54.143Z,25.20
2022-08-22T11:15:46.703Z,25.30
2022-08-22T11:18:30.747Z,25.30
2022-08-22T11:21:10.983Z,25.30
2022-08-22T11:23:40.813Z,25.40
2022-08-22T11:26:29.982Z,25.40
2022-08-22T11:29:23.350Z,25.50
2022-08-22T11:31:52.846Z,25.60
2022-08-22T11:34:47.040Z,25.70
2022-08-22T11:37:42.867Z,25.70
2022-08-22T11:40:41.462Z,25.80
2022-08-22T11:43:32.558Z,25.90
2022-08-22T11:46:14.008Z,25.90
2022-08-22T11:49:05.496Z,25.80
2022-08-22T11:51:44.769Z,25.80
2022-08-22T11:54:37.871Z,25.80
2022-08-22T11:57:33.613Z,25.80
2022-08-22T12:00:26.747Z,25.80
2022-08-22T12:03:12.667Z,25.70
2022-08-22T12:05:47.264Z,25.70
2022-08-22T12:08:23.461Z,25.70
2022-08-22T12:10:58.933Z,25.70
2022-08-22T12:13:52.476Z,25.70
2022-08-22T12:16:58.613Z,25.70
2022-08-22T12:19:42.037Z,25.80
2022-08-22T12:22:49.744Z,25.80
2022-08-22T12:25:24.125Z,25.90
2022-08-22T12:28:01.058Z,25.90
2022-08-22T12:30:55.129Z,25.80
2022-08-22T12:33:26.887Z,25.90
2022-08-22T12:36:18.351Z,25.90
2022-08-22T12:38:54.427Z,25.90
2022-08-22T12:41:40.239Z,25.90
2022-08-22T12:44:47.088Z,25.90
2022-08-22T12:47:46.400Z,25.90
2022-08-22T12:50:25.223Z,25.80
2022-08-22T12:53:01.430Z,25.80
2022-08-22T12:55:55.875Z,25.80
2022-08-22T12:58:35.845Z,25.80
2022-08-22T13:01:06.344Z,25.80
2022-08-22T13:03:49.303Z,25.80
2022-08-22T13:06:37.952Z,25.80
2022-08-22T13:09:30.771Z,25.90
2022-08-22T13:12:35.246Z,25.90
2022-08-22T13:15:10.822Z,25.80
2022-08-22T13:17:42.855Z,25.80
2022-08-22T13:20:13.341Z,25.80
2022-08-22T13:22:45.694Z,25.80
2022-08-22T13:25:15.849Z,25.80
2022-08-22T13:27:59.165Z,25.80
2022-08-22T13:30:44.087Z,25.80
2022-08-22T13:33:21.803Z,25.90
2022-08-22T13:35:52.685Z,25.90
2022-08-22T13:38:51.896Z,25.90
2022-08-22T13:41:26.123Z,25.90
2022-08-22T13:44:11.207Z,25.90
2022-08-22T13:46:52.751Z,26.00
2022-08-22T13:49:35.734Z,26.00
2022-08-22T13:52:29.220Z,26.00
2022-08-22T13:55:11.463Z,26.00
2022-08-22T13:57:52.014Z,26.10
2022-08-22T14:00:22.395Z,26.10
2022-08-22T14:03:01.745Z,26.20
2022-08-22T14:05:33.543Z,26.30
2022-08-22T14:08:12.907Z,26.30
2022-08-22T14:10:44.155Z,26.30
2022-08-22T14:13:17.543Z,26.30
2022-08-22T14:15:45.676Z,26.30
2022-08-22T14:18:19.877Z,26.30
2022-08-22T14:20:48.681Z,26.30
2022-08-22T14:23:29.159Z,26.20
2022-08-22T14:25:56.271Z,26.20
2022-08-22T14:28:32.061Z,26.20
2022-08-22T14:31:14.340Z,26.20
2022-08-22T14:33:45.159Z,26.20
2022-08-22T14:36:32.769Z,26.20
2022-08-22T14:39:08.807Z,26.20
2022-08-22T14:41:52.878Z,26.20
2022-08-22T14:44:32.240Z,26.20
2022-08-22T14:47:03.753Z,26.20
2022-08-22T14:49:49.318Z,26.20
2022-08-22T14:52:38.523Z,26.20
2022-08-22T14:55:27.758Z,26.20
2022-08-22T14:58:09.013Z,26.20
2022-08-22T15:00:37.871Z,26.20
2022-08-22T15:03:24.980Z,26.20
2022-08-22T15:06:06.761Z,26.20
2022-08-22T15:08:46.402Z,26.20
2022-08-22T15:11:22.106Z,26.20
2022-08-22T15:14:32.119Z,26.20
2022-08-22T15:17:01.882Z,26.20
2022-08-22T15:19:41.054Z,26.10
2022-08-22T15:22:27.566Z,26.10
2022-08-22T15:25:03.562Z,26.10
2022-08-22T15:27:31.275Z,26.10
2022-08-22T15:30:02.556Z,26.10
2022-08-22T15:32:35.751Z,26.10
2022-08-22T15:35:31.371Z,26.00
2022-08-22T15:38:04.719Z,26.00
2022-08-22T15:40:40.665Z,26.00
2022-08-22T15:43:34.901Z,26.00
2022-08-22T15:46:23.296Z,25.90
2022-08-22T15:49:10.646Z,25.90
2022-08-22T15:52:00.593Z,25.90
2022-08-22T15:54:54.670Z,25.90
2022-08-22T15:57:24.790Z,25.80
2022-08-22T16:00:24.626Z,25.80
2022-08-22T16:03:26.642Z,25.80
2022-08-22T16:05:58.517Z,25.80
2022-08-22T16:08:47.148Z,25.70
2022-08-22T16:11:29.687Z,25.70
2022-08-22T16:14:37.286Z,25.70
2022-08-22T16:17:07.143Z,25.70
2022-08-22T16:19:34.674Z,25.70
2022-08-22T16:22:03.359Z,25.70
2022-08-22T16:24:54.003Z,25.70
2022-08-22T16:27:25.102Z,25.70
2022-08-22T16:30:00.117Z,25.60
2022-08-22T16:32:28.276Z,25.60
2022-08-22T16:34:57.131Z,25.60
2022-08-22T16:37:42.142Z,25.60
2022-08-22T16:40:15.887Z,25.60
2022-08-22T16:42:46.339Z,25.60
2022-08-22T16:45:13.171Z,25.70
2022-08-22T16:48:02.312Z,25.60
2022-08-22T16:50:37.389Z,25.60
2022-08-22T16:53:08.547Z,25.60
2022-08-22T16:55:36.082Z,25.60
2022-08-22T16:58:56.641Z,25.60
2022-08-22T17:01:47.996Z,25.60
2022-08-22T17:04:26.705Z,25.60
2022-08-22T17:07:02.389Z,25.60
2022-08-22T17:09:50.783Z,25.50
2022-08-22T17:13:12.223Z,25.50
2022-08-22T17:16:16.721Z,25.50
2022-08-22T17:19:09.284Z,25.50
2022-08-22T17:21:51.733Z,25.50
2022-08-22T17:24:49.510Z,25.40
2022-08-22T17:27:16.437Z,25.40
2022-08-22T17:29:58.274Z,25.40
2022-08-22T17:32:34.877Z,25.40
2022-08-22T17:35:36.350Z,25.30
2022-08-22T17:38:30.952Z,25.30
2022-08-22T17:41:28.905Z,25.30
2022-08-22T17:44:23.170Z,25.30
2022-08-22T17:46:56.349Z,25.30
2022-08-22T17:49:29.036Z,25.20
2022-08-22T17:51:59.922Z,25.20
2022-08-22T17:54:41.998Z,25.20
2022-08-22T17:57:11.737Z,25.20
2022-08-22T17:59:47.613Z,25.20
2022-08-22T18:02:22.335Z,25.20
2022-08-22T18:05:00.973Z,25.10
2022-08-22T18:07:33.497Z,25.10
2022-08-22T18:10:19.374Z,25.10
2022-08-22T18:12:57.494Z,25.00
2022-08-22T18:15:32.241Z,25.00
2022-08-22T18:18:15.348Z,25.00
2022-08-22T18:20:46.865Z,25.00
2022-08-22T18:23:36.046Z,25.00
2022-08-22T18:26:24.577Z,24.90
2022-08-22T18:28:57.962Z,24.90
2022-08-22T18:32:05.899Z,24.80
2022-08-22T18:34:42.819Z,24.80
2022-08-22T18:37:37.167Z,24.80
2022-08-22T18:40:08.802Z,24.80
2022-08-22T18:42:53.142Z,24.80
2022-08-22T18:45:45.836Z,24.80
2022-08-22T18:48:31.768Z,24.80
2022-08-22T18:51:29.619Z,24.70
2022-08-22T18:54:05.562Z,24.70
2022-08-22T18:56:41.987Z,24.70
2022-08-22T18:59:09.092Z,24.70
2022-08-22T19:01:50.965Z,24.70
2022-08-22T19:04:33.115Z,24.70
2022-08-22T19:07:02.908Z,24.70
2022-08-22T19:09:56.111Z,24.70
2022-08-22T19:12:33.835Z,24.70
2022-08-22T19:15:25.567Z,24.60
2022-08-22T19:18:37.760Z,24.60
2022-08-22T19:21:39.466Z,24.60
2022-08-22T19:24:09.462Z,24.50
2022-08-22T19:26:37.660Z,24.50
2022-08-22T19:29:26.376Z,24.50
2022-08-22T19:32:00.332Z,24.50
2022-08-22T19:34:30.627Z,24.40
2022-08-22T19:37:33.106Z,24.40
2022-08-22T19:40:01.372Z,24.40
2022-08-22T19:42:30.507Z,24.40
2022-08-22T19:45:21.234Z,24.30
2022-08-22T19:47:59.746Z,24.30
2022-08-22T19:50:37.307Z,24.30
2022-08-22T19:53:18.534Z,24.30
2022-08-22T19:56:06.601Z,24.30
2022-08-22T19:59:02.979Z,24.30
2022-08-22T20:01:48.307Z,24.20
2022-08-22T20:04:53.875Z,24.20
2022-08-22T20:07:43.689Z,24.20
2022-08-22T20:10:29.614Z,24.20
2022-08-22T20:13:34.993Z,24.20
2022-08-22T20:16:07.779Z,24.10
2022-08-22T20:19:06.145Z,24.10
2022-08-22T20:22:00.539Z,24.10
2022-08-22T20:24:39.776Z,24.10
2022-08-22T20:27:14.538Z,24.10
2022-08-22T20:29:59.201Z,24.00
2022-08-22T20:32:26.156Z,24.00
2022-08-22T20:35:00.480Z,24.00
2022-08-22T20:38:03.200Z,24.00
2022-08-22T20:40:56.429Z,24.00
2022-08-22T20:43:36.447Z,23.90
2022-08-22T20:46:32.275Z,24.00
2022-08-22T20:49:02.326Z,23.90
2022-08-22T20:51:30.383Z,23.90
2022-08-22T20:54:10.184Z,23.90
2022-08-22T20:56:53.088Z,23.90
2022-08-22T20:59:39.885Z,23.80
2022-08-22T21:02:20.886Z,23.90
2022-08-22T21:05:01.991Z,23.90
2022-08-22T21:07:36.474Z,23.90
2022-08-22T21:10:27.623Z,23.90
2022-08-22T21:13:09.848Z,23.90
2022-08-22T21:15:42.151Z,23.80
2022-08-22T21:18:10.607Z,23.80
2022-08-22T21:20:41.140Z,23.80
2022-08-22T21:23:16.287Z,23.80
2022-08-22T21:25:49.127Z,23.80
2022-08-22T21:28:50.895Z,23.70
2022-08-22T21:31:21.008Z,23.70
2022-08-22T21:33:51.997Z,23.70
2022-08-22T21:36:27.447Z,23.70
2022-08-22T21:38:56.388Z,23.70
2022-08-22T21:41:30.670Z,23.70
2022-08-22T21:44:22.157Z,23.70
2022-08-22T21:46:52.510Z,23.70
2022-08-22T21:49:24.300Z,23.70
2022-08-22T21:51:51.207Z,23.70
2022-08-22T21:54:30.089Z,23.60
2022-08-22T21:57:09.776Z,23.60
2022-08-22T21:59:52.122Z,23.60
2022-08-22T22:02:34.234Z,23.50
2022-08-22T22:05:11.523Z,23.50
2022-08-22T22:07:40.272Z,23.50
2022-08-22T22:10:08.545Z,23.50
2022-08-22T22:12:35.406Z,23.50
2022-08-22T22:15:02.661Z,23.50
2022-08-22T22:17:29.417Z,23.40
2022-08-22T22:19:56.181Z,23.40
2022-08-22T22:22:25.088Z,23.40
2022-08-22T22:24:51.851Z,23.30
2022-08-22T22:27:18.591Z,23.30
2022-08-22T22:29:45.337Z,23.30
2022-08-22T22:32:12.109Z,23.30
2022-08-22T22:34:39.234Z,23.20
2022-08-22T22:37:09.487Z,23.20
2022-08-22T22:39:36.402Z,23.20
2022-08-22T22:42:03.533Z,23.20
2022-08-22T22:44:30.463Z,23.20
2022-08-22T22:46:58.405Z,23.10
2022-08-22T22:49:25.189Z,23.10
2022-08-22T22:51:51.983Z,23.10
2022-08-22T22:54:21.159Z,23.10
2022-08-22T22:56:54.160Z,23.10
2022-08-22T22:59:24.727Z,23.10
2022-08-22T23:02:15.823Z,23.10
2022-08-22T23:04:44.202Z,23.10
2022-08-22T23:07:11.789Z,23.00
2022-08-22T23:09:44.448Z,23.00
2022-08-22T23:12:11.678Z,23.00
2022-08-22T23:14:38.423Z,23.00
2022-08-22T23:17:05.269Z,23.00
2022-08-22T23:19:32.863Z,22.90
2022-08-22T23:21:59.892Z,22.90
2022-08-22T23:24:28.266Z,22.90
2022-08-22T23:26:55.582Z,22.80
2022-08-22T23:29:22.340Z,22.80
2022-08-22T23:31:56.493Z,22.80
2022-08-22T23:34:32.812Z,22.80
2022-08-22T23:37:06.572Z,22.80
2022-08-22T23:39:33.878Z,22.80
2022-08-22T23:42:01.038Z,22.70
2022-08-22T23:44:30.377Z,22.70
2022-08-22T23:47:01.798Z,22.70
2022-08-22T23:49:31.168Z,22.70
2022-08-22T23:51:57.996Z,22.70
2022-08-22T23:54:24.830Z,22.70
2022-08-22T23:56:57.123Z,22.60
2022-08-22T23:59:36.107Z,22.60
